Time;durP1;ratioP1;P1;durP2;ratioP2;P2;SDS_P1;SDS_P2;PMS_P1;PMS_P2;Temp;Humidity;BMP_temperature;BMP_pressure;BME280_temperature;BME280_humidity;BME280_pressure;Samples;Min_cycle;Max_cycle;Signal;HPM_P1;HPM_P2
2021/10/07 00:01:32;;;;;;;0.40;0.20;;;;;;;13.51;54.58;101270.45;111513;1193;138283;-75
2021/10/07 00:03:59;;;;;;;0.40;0.20;;;;;;;13.43;54.18;101276.16;111541;1195;96510;-75
2021/10/07 00:06:26;;;;;;;0.40;0.20;;;;;;;13.37;54.53;101280.40;111366;1194;137742;-76
2021/10/07 00:08:52;;;;;;;0.40;0.20;;;;;;;13.38;54.47;101279.30;111540;1193;94929;-76
2021/10/07 00:11:19;;;;;;;0.40;0.20;;;;;;;13.38;54.64;101279.48;111553;1194;95379;-75
2021/10/07 00:13:45;;;;;;;0.40;0.20;;;;;;;13.37;54.40;101277.70;111632;1193;137970;-76
2021/10/07 00:16:12;;;;;;;0.40;0.30;;;;;;;13.32;54.39;101276.56;111583;1193;95336;-75
2021/10/07 00:18:41;;;;;;;0.40;0.20;;;;;;;13.30;54.84;101275.89;111483;1193;137924;-75
2021/10/07 00:21:10;;;;;;;0.40;0.30;;;;;;;13.29;54.41;101273.95;111547;1193;110083;-77
2021/10/07 00:23:49;;;;;;;0.40;0.30;;;;;;;13.16;54.03;101276.02;112629;1193;138209;-77
2021/10/07 00:26:17;;;;;;;0.40;0.30;;;;;;;13.13;54.36;101273.79;111780;1193;94885;-77
2021/10/07 00:28:44;;;;;;;0.40;0.30;;;;;;;13.09;54.34;101273.52;111623;1193;108802;-75
2021/10/07 00:31:17;;;;;;;0.40;0.30;;;;;;;13.12;54.78;101273.80;111315;1195;138845;-76
2021/10/07 00:34:37;;;;;;;0.40;0.30;;;;;;;13.09;54.42;101277.98;111506;1195;95398;-75
2021/10/07 00:39:15;;;;;;;0.40;0.30;;;;;;;13.03;54.24;101282.59;114884;1193;108551;-76
2021/10/07 00:41:43;;;;;;;0.40;0.30;;;;;;;13.01;54.27;101281.02;113747;1193;138876;-75
2021/10/07 00:44:10;;;;;;;0.40;0.30;;;;;;;12.99;54.00;101281.21;111465;1195;95452;-76
2021/10/07 00:46:46;;;;;;;0.40;0.30;;;;;;;13.01;54.27;101283.67;111484;1194;96243;-76
2021/10/07 00:49:13;;;;;;;0.40;0.20;;;;;;;13.02;54.37;101282.23;111415;1193;138365;-75
2021/10/07 00:51:40;;;;;;;0.40;0.30;;;;;;;13.05;54.17;101280.20;111573;1193;95414;-75
2021/10/07 00:54:07;;;;;;;0.40;0.30;;;;;;;13.01;54.19;101276.38;111456;1195;138659;-76
2021/10/07 00:56:34;;;;;;;0.40;0.20;;;;;;;12.97;54.24;101275.74;111539;1194;95023;-76
2021/10/07 00:59:01;;;;;;;0.40;0.30;;;;;;;12.98;54.75;101280.71;111523;1193;95208;-75
2021/10/07 01:01:28;;;;;;;0.40;0.30;;;;;;;12.99;54.59;101280.52;114696;1194;137804;-76
2021/10/07 01:03:55;;;;;;;0.40;0.30;;;;;;;12.97;54.74;101281.45;114897;1193;93134;-76
2021/10/07 01:06:22;;;;;;;0.40;0.30;;;;;;;12.96;54.89;101279.52;114577;1193;137615;-76
2021/10/07 01:08:49;;;;;;;0.40;0.30;;;;;;;12.91;54.66;101281.05;114846;1193;93021;-76
2021/10/07 01:11:15;;;;;;;0.40;0.30;;;;;;;12.91;54.96;101285.86;114883;1194;109141;-76
2021/10/07 01:13:42;;;;;;;0.40;0.30;;;;;;;12.93;54.92;101284.58;112869;1195;137607;-75
2021/10/07 01:16:09;;;;;;;0.40;0.30;;;;;;;12.93;54.70;101279.23;111506;1194;94873;-75
2021/10/07 01:18:35;;;;;;;0.40;0.20;;;;;;;12.92;54.59;101283.72;111431;1193;137710;-75
2021/10/07 01:21:02;;;;;;;0.40;0.30;;;;;;;12.90;54.77;101286.60;111453;1195;95312;-74
2021/10/07 01:23:29;;;;;;;0.40;0.30;;;;;;;12.87;54.78;101288.42;111532;1193;138081;-75
2021/10/07 01:25:56;;;;;;;0.40;0.30;;;;;;;12.87;54.41;101289.14;111535;1193;109949;-75
2021/10/07 01:28:22;;;;;;;0.40;0.20;;;;;;;12.82;54.18;101288.55;111357;1195;96037;-76
2021/10/07 01:30:49;;;;;;;0.40;0.20;;;;;;;12.77;53.97;101291.14;111317;1195;138024;-75
2021/10/07 01:33:15;;;;;;;0.40;0.30;;;;;;;12.74;53.98;101295.31;111581;1193;94986;-75
2021/10/07 01:35:42;;;;;;;0.40;0.30;;;;;;;12.66;53.65;101295.66;111368;1193;138293;-75
2021/10/07 01:38:09;;;;;;;0.40;0.30;;;;;;;12.68;54.11;101301.13;111332;1195;109571;-76
2021/10/07 01:40:35;;;;;;;0.40;0.30;;;;;;;12.71;53.82;101299.10;111534;1195;95385;-75
2021/10/07 01:43:02;;;;;;;0.40;0.30;;;;;;;12.80;53.93;101299.10;111352;1193;137755;-75
2021/10/07 01:45:29;;;;;;;0.40;0.30;;;;;;;12.77;53.54;101296.49;111427;1195;95243;-75
2021/10/07 01:47:55;;;;;;;0.40;0.30;;;;;;;12.72;53.17;101300.88;111383;1195;138055;-75
2021/10/07 01:50:22;;;;;;;0.40;0.30;;;;;;;12.66;53.71;101302.61;111382;1194;109954;-75
2021/10/07 01:52:49;;;;;;;0.40;0.30;;;;;;;12.62;53.53;101306.23;111486;1195;94871;-76
2021/10/07 01:55:16;;;;;;;0.40;0.30;;;;;;;12.58;53.48;101307.75;111389;1193;137783;-76
2021/10/07 01:57:42;;;;;;;0.40;0.30;;;;;;;12.54;53.90;101309.27;111420;1195;94900;-75
2021/10/07 02:00:10;;;;;;;0.40;0.30;;;;;;;12.55;54.43;101310.50;111456;1193;138110;-76
2021/10/07 02:02:37;;;;;;;0.40;0.30;;;;;;;12.57;54.16;101308.31;111493;1193;108594;-76
2021/10/07 02:05:04;;;;;;;0.40;0.30;;;;;;;12.55;53.96;101309.06;111518;1194;95239;-75
2021/10/07 02:07:31;;;;;;;0.40;0.30;;;;;;;12.51;54.65;101310.92;111450;1193;138289;-75
2021/10/07 02:09:57;;;;;;;0.40;0.20;;;;;;;12.48;54.47;101309.90;111556;1193;94868;-75
2021/10/07 02:12:24;;;;;;;0.40;0.30;;;;;;;12.51;54.84;101310.20;111457;1193;137968;-75
2021/10/07 02:14:51;;;;;;;0.40;0.30;;;;;;;12.48;55.16;101312.40;111617;1193;95530;-75
2021/10/07 02:17:17;;;;;;;0.40;0.30;;;;;;;12.44;54.62;101316.94;111518;1195;95637;-76
2021/10/07 02:19:44;;;;;;;0.40;0.30;;;;;;;12.36;54.22;101320.29;111404;1193;139178;-76
2021/10/07 02:22:10;;;;;;;0.40;0.30;;;;;;;12.30;53.76;101324.84;111489;1195;95437;-75
2021/10/07 02:24:37;;;;;;;0.40;0.30;;;;;;;12.29;54.43;101321.48;111340;1194;138670;-75
2021/10/07 02:27:04;;;;;;;0.40;0.30;;;;;;;12.31;54.35;101321.63;111540;1194;95280;-75
2021/10/07 02:29:31;;;;;;;0.40;0.30;;;;;;;12.29;54.10;101323.80;111413;1193;138133;-76
2021/10/07 02:31:58;;;;;;;0.40;0.30;;;;;;;12.32;54.30;101325.52;111594;1193;94969;-76
2021/10/07 02:34:24;;;;;;;0.40;0.30;;;;;;;12.30;54.00;101329.30;111553;1193;108813;-76
2021/10/07 02:36:51;;;;;;;0.40;0.40;;;;;;;12.31;53.75;101333.20;111212;1195;137688;-74
2021/10/07 02:39:17;;;;;;;0.40;0.30;;;;;;;12.31;53.53;101336.05;111506;1193;95168;-76
2021/10/07 02:41:44;;;;;;;0.40;0.30;;;;;;;12.26;53.37;101339.89;111414;1193;137597;-76
2021/10/07 02:44:11;;;;;;;0.40;0.30;;;;;;;12.26;53.53;101340.42;111506;1195;94883;-76
2021/10/07 02:46:37;;;;;;;0.40;0.30;;;;;;;12.23;53.43;101345.46;111405;1195;108508;-76
2021/10/07 02:49:05;;;;;;;0.40;0.30;;;;;;;12.28;53.81;101352.15;111427;1193;138129;-75
2021/10/07 02:51:31;;;;;;;0.40;0.30;;;;;;;12.32;53.76;101355.64;111555;1194;96416;-76
2021/10/07 02:53:58;;;;;;;0.40;0.30;;;;;;;12.34;53.50;101354.69;111424;1193;138446;-75
2021/10/07 02:56:25;;;;;;;0.40;0.30;;;;;;;12.32;53.26;101355.79;111413;1194;95167;-77
2021/10/07 02:58:52;;;;;;;0.40;0.30;;;;;;;12.35;53.26;101359.47;111564;1193;94868;-76
2021/10/07 03:01:18;;;;;;;0.40;0.30;;;;;;;12.35;53.13;101360.91;111484;1195;137549;-76
2021/10/07 03:03:46;;;;;;;0.40;0.30;;;;;;;12.32;53.26;101364.17;111557;1193;95327;-76
2021/10/07 03:06:12;;;;;;;0.40;0.30;;;;;;;12.29;52.82;101367.79;111391;1195;138086;-76
2021/10/07 03:08:39;;;;;;;0.40;0.30;;;;;;;12.20;52.74;101368.66;111351;1195;96116;-76
2021/10/07 03:11:05;;;;;;;0.40;0.30;;;;;;;12.18;53.38;101373.30;111512;1193;95007;-76
2021/10/07 03:13:32;;;;;;;0.40;0.30;;;;;;;12.19;53.41;101370.99;111707;1193;138484;-75
2021/10/07 03:15:59;;;;;;;0.40;0.30;;;;;;;12.17;52.95;101371.02;111660;1194;95090;-76
2021/10/07 03:18:25;;;;;;;0.40;0.30;;;;;;;12.09;52.83;101368.84;111604;1195;138401;-76
2021/10/07 03:20:52;;;;;;;0.40;0.30;;;;;;;12.02;52.96;101370.73;111545;1194;94931;-76
2021/10/07 03:23:19;;;;;;;0.40;0.30;;;;;;;12.00;53.20;101370.77;111480;1194;96005;-76
2021/10/07 03:25:45;;;;;;;0.40;0.40;;;;;;;11.98;52.95;101378.27;111731;1195;138591;-75
2021/10/07 03:28:12;;;;;;;0.40;0.30;;;;;;;11.98;52.85;101381.48;111457;1195;95477;-76
2021/10/07 03:30:39;;;;;;;0.40;0.30;;;;;;;11.94;52.94;101379.92;111405;1193;138493;-77
2021/10/07 03:33:09;;;;;;;0.40;0.30;;;;;;;11.95;53.50;101381.52;111485;1194;94872;-76
2021/10/07 03:35:36;;;;;;;0.40;0.30;;;;;;;12.00;53.51;101384.82;111426;1193;138070;-76
2021/10/07 03:38:04;;;;;;;0.40;0.30;;;;;;;12.04;53.42;101389.58;111570;1195;95729;-77
2021/10/07 03:40:31;;;;;;;0.40;0.30;;;;;;;11.97;52.76;101388.61;111503;1193;95393;-77
2021/10/07 03:42:58;;;;;;;0.40;0.30;;;;;;;11.88;53.05;101387.66;111394;1193;137463;-75
2021/10/07 03:45:25;;;;;;;0.40;0.30;;;;;;;11.83;53.10;101391.47;111348;1196;96243;-75
2021/10/07 03:47:52;;;;;;;0.40;0.30;;;;;;;11.79;53.39;101395.09;111326;1195;138686;-76
2021/10/07 03:50:18;;;;;;;0.40;0.30;;;;;;;11.76;52.91;101400.48;111499;1193;94890;-76
2021/10/07 03:52:45;;;;;;;0.40;0.40;;;;;;;11.75;53.57;101399.25;111568;1193;95433;-75
2021/10/07 03:55:12;;;;;;;0.40;0.30;;;;;;;11.77;53.36;101402.80;111370;1193;137379;-75
2021/10/07 03:57:38;;;;;;;0.40;0.30;;;;;;;11.71;52.96;101402.34;111544;1194;95984;-75
2021/10/07 04:00:08;;;;;;;0.40;0.30;;;;;;;11.62;52.76;101406.73;111452;1195;137647;-76
2021/10/07 04:02:34;;;;;;;0.40;0.40;;;;;;;11.55;52.76;101412.72;111396;1195;94988;-75
2021/10/07 04:05:01;;;;;;;0.40;0.30;;;;;;;11.48;52.95;101412.97;111335;1193;95513;-75
2021/10/07 04:07:28;;;;;;;0.40;0.40;;;;;;;11.46;53.70;101413.36;111408;1194;137885;-75
2021/10/07 04:09:54;;;;;;;0.40;0.30;;;;;;;11.47;53.28;101416.91;111467;1195;95061;-75
2021/10/07 04:12:21;;;;;;;0.40;0.30;;;;;;;11.41;53.03;101416.27;111518;1193;137500;-75
2021/10/07 04:14:48;;;;;;;0.40;0.30;;;;;;;11.36;52.98;101414.92;111666;1193;95020;-76
2021/10/07 04:17:15;;;;;;;0.40;0.30;;;;;;;11.31;53.16;101421.73;111585;1193;94927;-75
2021/10/07 04:19:41;;;;;;;0.40;0.30;;;;;;;11.25;53.01;101422.35;111531;1194;137499;-76
2021/10/07 04:22:08;;;;;;;0.40;0.30;;;;;;;11.25;53.44;101426.98;111567;1194;95333;-76
2021/10/07 04:24:35;;;;;;;0.40;0.40;;;;;;;11.26;53.63;101428.74;111430;1195;137928;-76
2021/10/07 04:27:01;;;;;;;0.40;0.30;;;;;;;11.25;53.74;101433.03;111661;1193;94975;-76
2021/10/07 04:29:28;;;;;;;0.40;0.40;;;;;;;11.25;53.66;101436.58;111534;1195;137983;-76
2021/10/07 04:31:55;;;;;;;0.40;0.30;;;;;;;11.26;53.39;101443.83;111584;1194;94871;-74
2021/10/07 04:34:22;;;;;;;0.40;0.40;;;;;;;11.26;53.19;101442.96;111537;1195;95417;-76
2021/10/07 04:36:48;;;;;;;0.40;0.30;;;;;;;11.22;53.15;101446.91;111340;1195;138953;-76
2021/10/07 04:39:15;;;;;;;0.40;0.30;;;;;;;11.20;53.07;101448.91;111568;1195;95296;-76
2021/10/07 04:41:42;;;;;;;0.40;0.30;;;;;;;11.16;53.27;101454.82;111397;1195;138057;-76
2021/10/07 04:44:08;;;;;;;0.40;0.40;;;;;;;11.10;53.04;101461.45;111645;1194;109903;-75
2021/10/07 04:46:35;;;;;;;0.40;0.30;;;;;;;11.08;53.19;101459.73;111391;1195;95099;-75
2021/10/07 04:49:02;;;;;;;0.40;0.30;;;;;;;11.07;53.26;101465.39;111551;1193;138158;-76
2021/10/07 04:51:29;;;;;;;0.40;0.30;;;;;;;11.12;53.61;101472.27;111717;1194;94813;-76
2021/10/07 04:53:55;;;;;;;0.40;0.30;;;;;;;11.11;53.18;101473.88;111583;1194;142979;-76
2021/10/07 04:56:22;;;;;;;0.40;0.30;;;;;;;11.02;53.47;101474.69;111730;1193;94960;-76
2021/10/07 04:58:49;;;;;;;0.40;0.40;;;;;;;11.03;53.74;101476.98;111702;1193;95347;-76
2021/10/07 05:01:19;;;;;;;0.40;0.30;;;;;;;11.04;53.74;101486.59;112111;1200;139722;-76
2021/10/07 05:03:50;;;;;;;0.40;0.30;;;;;;;10.97;53.56;101489.85;111560;1193;108349;-77
2021/10/07 05:06:17;;;;;;;0.40;0.30;;;;;;;10.92;53.65;101494.16;111532;1193;138480;-76
2021/10/07 05:08:44;;;;;;;0.40;0.30;;;;;;;10.88;53.54;101499.70;111631;1193;95188;-76
2021/10/07 05:11:10;;;;;;;0.40;0.30;;;;;;;10.82;53.60;101499.60;111452;1195;95347;-76
2021/10/07 05:13:37;;;;;;;0.40;0.30;;;;;;;10.79;53.71;101502.11;111373;1193;138488;-76
2021/10/07 05:16:04;;;;;;;0.40;0.30;;;;;;;10.82;53.95;101510.95;111809;1195;94839;-76
2021/10/07 05:18:31;;;;;;;0.50;0.40;;;;;;;10.76;53.58;101514.05;111870;1194;137415;-76
2021/10/07 05:20:57;;;;;;;0.40;0.30;;;;;;;10.68;53.43;101513.22;112053;1193;94915;-76
2021/10/07 05:23:24;;;;;;;0.40;0.40;;;;;;;10.68;53.93;101512.69;111962;1195;95362;-76
2021/10/07 05:25:51;;;;;;;0.40;0.30;;;;;;;10.66;53.63;101514.84;111971;1193;137901;-76
2021/10/07 05:28:17;;;;;;;0.40;0.40;;;;;;;10.54;53.73;101515.65;111832;1194;94970;-76
2021/10/07 05:30:44;;;;;;;0.40;0.40;;;;;;;10.53;53.72;101520.81;111859;1193;137560;-76
2021/10/07 05:33:11;;;;;;;0.40;0.40;;;;;;;10.55;53.89;101528.25;111951;1193;94895;-75
2021/10/07 05:35:37;;;;;;;0.40;0.40;;;;;;;10.53;53.88;101535.38;111634;1193;137699;-76
2021/10/07 05:38:04;;;;;;;0.40;0.30;;;;;;;10.56;53.91;101535.54;111698;1193;108489;-75
2021/10/07 05:40:31;;;;;;;0.40;0.40;;;;;;;10.63;53.87;101538.85;111584;1193;94882;-77
2021/10/07 05:42:57;;;;;;;0.40;0.30;;;;;;;10.61;53.61;101545.08;111481;1195;137521;-77
2021/10/07 05:45:24;;;;;;;0.40;0.40;;;;;;;10.57;53.60;101549.55;111578;1194;95347;-76
2021/10/07 05:47:51;;;;;;;0.40;0.40;;;;;;;10.55;53.66;101552.23;111616;1194;138109;-75
2021/10/07 05:50:17;;;;;;;0.40;0.40;;;;;;;10.57;53.79;101550.98;111489;1193;108551;-76
2021/10/07 05:52:44;;;;;;;0.40;0.40;;;;;;;10.57;53.38;101553.64;111458;1195;94929;-76
2021/10/07 05:55:11;;;;;;;0.50;0.50;;;;;;;10.43;53.20;101559.05;111485;1193;139017;-74
2021/10/07 05:57:38;;;;;;;0.40;0.30;;;;;;;10.35;53.76;101562.30;111600;1193;95091;-76
2021/10/07 06:00:06;;;;;;;0.40;0.40;;;;;;;10.41;54.13;101564.05;111337;1195;138557;-75
2021/10/07 06:02:36;;;;;;;0.40;0.40;;;;;;;10.47;53.94;101568.79;111540;1193;95440;-75
2021/10/07 06:05:04;;;;;;;0.40;0.40;;;;;;;10.51;54.25;101566.98;111483;1194;94905;-76
2021/10/07 06:07:32;;;;;;;0.40;0.40;;;;;;;10.57;53.76;101569.44;111383;1194;138182;-76
2021/10/07 06:09:59;;;;;;;0.40;0.40;;;;;;;10.61;54.06;101567.63;111363;1195;95891;-75
2021/10/07 06:12:25;;;;;;;0.40;0.40;;;;;;;10.56;53.39;101571.58;111420;1193;138113;-76
2021/10/07 06:14:52;;;;;;;0.40;0.40;;;;;;;10.51;53.54;101573.56;111381;1195;94969;-76
2021/10/07 06:17:19;;;;;;;0.40;0.40;;;;;;;10.53;53.76;101572.30;111586;1193;95482;-75
2021/10/07 06:19:48;;;;;;;0.40;0.30;;;;;;;10.53;53.75;101573.72;111482;1193;138465;-76
2021/10/07 06:22:15;;;;;;;0.40;0.30;;;;;;;10.65;54.24;101574.53;111438;1197;95050;-76
2021/10/07 06:24:41;;;;;;;0.40;0.30;;;;;;;10.75;53.94;101573.92;111499;1193;138483;-77
2021/10/07 06:27:08;;;;;;;0.40;0.30;;;;;;;10.84;53.51;101575.61;111511;1196;94920;-76
2021/10/07 06:29:35;;;;;;;0.50;0.50;;;;;;;10.79;52.95;101577.79;111458;1194;138172;-76
2021/10/07 06:32:05;;;;;;;0.40;0.30;;;;;;;10.72;52.69;101580.68;111550;1193;108873;-77
2021/10/07 06:34:31;;;;;;;0.40;0.40;;;;;;;10.69;53.18;101583.19;111438;1195;94928;-77
2021/10/07 06:36:58;;;;;;;0.40;0.30;;;;;;;10.61;52.83;101593.92;111502;1193;137916;-76
2021/10/07 06:39:25;;;;;;;0.40;0.30;;;;;;;10.58;53.40;101595.01;111475;1194;96803;-76
2021/10/07 06:41:51;;;;;;;0.40;0.30;;;;;;;10.61;53.10;101597.29;111403;1196;137970;-76
2021/10/07 06:44:19;;;;;;;0.40;0.30;;;;;;;10.62;52.95;101603.68;111475;1197;94930;-75
2021/10/07 06:46:45;;;;;;;0.40;0.30;;;;;;;10.65;53.31;101608.80;111423;1196;110280;-75
2021/10/07 06:49:12;;;;;;;0.40;0.30;;;;;;;10.65;52.92;101609.87;111428;1194;138596;-76
2021/10/07 06:51:39;;;;;;;0.40;0.40;;;;;;;10.66;53.17;101614.83;111466;1195;94932;-76
2021/10/07 06:54:05;;;;;;;0.40;0.40;;;;;;;10.72;53.39;101620.13;111337;1195;137747;-76
2021/10/07 06:56:32;;;;;;;0.40;0.40;;;;;;;10.84;53.32;101618.79;111600;1195;94912;-76
2021/10/07 06:58:59;;;;;;;0.40;0.30;;;;;;;10.93;52.91;101619.08;111536;1193;109542;-76
2021/10/07 07:01:27;;;;;;;0.40;0.30;;;;;;;10.97;52.88;101624.02;111506;1193;137867;-76
2021/10/07 07:03:56;;;;;;;0.40;0.40;;;;;;;11.01;53.19;101628.06;111961;1193;95112;-76
2021/10/07 07:06:24;;;;;;;0.40;0.30;;;;;;;11.06;53.24;101629.98;111800;1193;137297;-76
2021/10/07 07:08:51;;;;;;;0.40;0.40;;;;;;;11.15;52.60;101630.79;111572;1193;110089;-75
2021/10/07 07:11:18;;;;;;;0.40;0.40;;;;;;;11.10;51.96;101628.35;111591;1193;95065;-76
2021/10/07 07:13:45;;;;;;;0.40;0.30;;;;;;;11.04;52.08;101626.27;111560;1193;137782;-79
2021/10/07 07:16:12;;;;;;;0.40;0.30;;;;;;;11.07;52.76;101631.75;111502;1195;95099;-77
2021/10/07 07:18:40;;;;;;;0.40;0.40;;;;;;;11.13;52.37;101627.06;111422;1193;137745;-76
2021/10/07 07:21:07;;;;;;;0.40;0.30;;;;;;;11.20;52.13;101627.55;111638;1193;95136;-77
2021/10/07 07:23:34;;;;;;;0.40;0.40;;;;;;;11.29;52.38;101628.37;111409;1195;138167;-76
2021/10/07 07:26:01;;;;;;;0.40;0.30;;;;;;;11.35;52.11;101632.03;111586;1194;95871;-77
2021/10/07 07:28:27;;;;;;;0.40;0.40;;;;;;;11.39;51.62;101630.76;111519;1195;95104;-76
2021/10/07 07:30:54;;;;;;;0.40;0.40;;;;;;;11.35;51.39;101631.67;111527;1193;138026;-75
2021/10/07 07:33:24;;;;;;;0.40;0.30;;;;;;;11.40;52.03;101632.34;111588;1195;95292;-76
2021/10/07 07:35:51;;;;;;;0.40;0.30;;;;;;;11.41;51.07;101637.13;111367;1195;139111;-75
2021/10/07 07:38:18;;;;;;;0.40;0.30;;;;;;;11.39;51.27;101637.52;111449;1196;95015;-75
2021/10/07 07:40:45;;;;;;;0.40;0.30;;;;;;;11.52;52.05;101640.21;111574;1193;95466;-77
2021/10/07 07:43:18;;;;;;;0.40;0.30;;;;;;;11.64;51.18;101635.29;111474;1194;137812;-76
2021/10/07 07:45:51;;;;;;;0.40;0.30;;;;;;;11.77;51.58;101638.17;111857;1195;94981;-77
2021/10/07 07:48:18;;;;;;;0.40;0.30;;;;;;;11.82;50.95;101638.30;111708;1194;138268;-78
2021/10/07 07:50:45;;;;;;;0.40;0.30;;;;;;;11.81;50.69;101640.27;111461;1194;95300;-76
2021/10/07 07:53:12;;;;;;;0.40;0.30;;;;;;;11.82;50.83;101644.16;111600;1194;94979;-75
2021/10/07 07:55:39;;;;;;;0.40;0.40;;;;;;;11.85;51.09;101640.75;111566;1193;138969;-76
2021/10/07 07:58:06;;;;;;;0.40;0.30;;;;;;;11.92;51.41;101643.70;111847;1195;106784;-76
2021/10/07 08:00:33;;;;;;;0.40;0.30;;;;;;;11.96;51.32;101645.81;111290;1194;138910;-76
2021/10/07 08:03:00;;;;;;;0.40;0.30;;;;;;;11.88;49.86;101644.11;111407;1195;95341;-76
2021/10/07 08:05:27;;;;;;;0.40;0.30;;;;;;;11.81;50.27;101646.14;111564;1193;139329;-77
2021/10/07 08:07:54;;;;;;;0.40;0.30;;;;;;;11.83;50.85;101647.36;111622;1194;94912;-76
2021/10/07 08:10:21;;;;;;;0.40;0.30;;;;;;;11.96;51.17;101653.11;111530;1193;108739;-76
2021/10/07 08:12:48;;;;;;;0.40;0.30;;;;;;;12.09;51.27;101653.85;111287;1195;139927;-76
2021/10/07 08:15:15;;;;;;;0.40;0.30;;;;;;;12.16;50.75;101656.26;111466;1195;95231;-76
2021/10/07 08:17:42;;;;;;;0.40;0.30;;;;;;;12.21;50.55;101657.97;111422;1193;137628;-76
2021/10/07 08:20:11;;;;;;;0.40;0.30;;;;;;;12.25;50.68;101661.48;111583;1193;95672;-77
2021/10/07 08:22:39;;;;;;;0.40;0.20;;;;;;;12.30;50.15;101659.45;111542;1194;94925;-78
2021/10/07 08:25:07;;;;;;;0.40;0.30;;;;;;;12.41;50.33;101655.58;111452;1193;137292;-77
2021/10/07 08:27:35;;;;;;;0.40;0.30;;;;;;;12.52;49.97;101656.67;112026;1193;94863;-76
2021/10/07 08:30:04;;;;;;;0.40;0.30;;;;;;;12.60;49.36;101658.69;111434;1193;138403;-76
2021/10/07 08:32:30;;;;;;;0.40;0.30;;;;;;;12.75;49.73;101658.28;111607;1193;108528;-76
2021/10/07 08:34:57;;;;;;;0.40;0.30;;;;;;;12.92;49.64;101664.45;111677;1193;94906;-77
2021/10/07 08:37:24;;;;;;;0.40;0.30;;;;;;;13.10;49.08;101663.09;111429;1194;137946;-77
2021/10/07 08:39:50;;;;;;;0.40;0.20;;;;;;;13.32;48.58;101662.20;111503;1193;94996;-77
2021/10/07 08:42:17;;;;;;;0.40;0.30;;;;;;;13.40;47.48;101663.69;111471;1193;137854;-76
2021/10/07 08:44:44;;;;;;;0.40;0.30;;;;;;;13.44;47.86;101662.36;111602;1193;109322;-77
2021/10/07 08:47:12;;;;;;;0.40;0.20;;;;;;;13.48;47.15;101664.63;111600;1195;95355;-76
2021/10/07 08:49:42;;;;;;;0.40;0.30;;;;;;;13.54;47.72;101667.53;111626;1194;138924;-76
2021/10/07 08:52:10;;;;;;;0.40;0.30;;;;;;;13.59;46.93;101666.21;111512;1193;110156;-77
2021/10/07 08:54:37;;;;;;;0.40;0.20;;;;;;;13.50;46.64;101671.71;111500;1193;138927;-76
2021/10/07 08:57:05;;;;;;;0.40;0.20;;;;;;;13.45;47.22;101669.66;111619;1193;95250;-76
2021/10/07 08:59:33;;;;;;;0.40;0.20;;;;;;;13.42;46.98;101670.41;111554;1195;138209;-75
2021/10/07 09:02:07;;;;;;;0.40;0.20;;;;;;;13.43;47.24;101666.66;111464;1201;108526;-77
2021/10/07 09:04:36;;;;;;;0.40;0.20;;;;;;;13.49;47.18;101667.45;111611;1194;109483;-77
2021/10/07 09:07:06;;;;;;;0.40;0.20;;;;;;;13.54;47.68;101666.65;111526;1193;138542;-78
2021/10/07 09:09:35;;;;;;;0.40;0.20;;;;;;;13.64;47.88;101659.67;111727;1193;94929;-77
2021/10/07 09:12:11;;;;;;;0.40;0.20;;;;;;;13.73;47.79;101659.86;113389;1193;137657;-75
2021/10/07 09:14:45;;;;;;;0.40;0.20;;;;;;;13.92;47.49;101660.39;111564;1193;108587;-76
2021/10/07 09:17:13;;;;;;;0.40;0.20;;;;;;;14.06;47.10;101660.48;114902;1193;93880;-78
2021/10/07 09:19:42;;;;;;;0.40;0.20;;;;;;;14.16;47.03;101662.39;114822;1193;137494;-77
2021/10/07 09:22:13;;;;;;;0.40;0.20;;;;;;;14.27;46.97;101666.29;113930;1193;107681;-77
2021/10/07 09:24:48;;;;;;;0.40;0.20;;;;;;;14.39;46.60;101665.14;111419;1193;139789;-76
2021/10/07 09:27:22;;;;;;;0.40;0.20;;;;;;;14.45;46.15;101665.73;111619;1193;95553;-76
2021/10/07 09:29:52;;;;;;;0.40;0.20;;;;;;;14.49;45.98;101665.09;113950;1193;137581;-76
2021/10/07 09:32:24;;;;;;;0.40;0.20;;;;;;;14.62;46.39;101667.48;111467;1196;107048;-76
2021/10/07 09:34:51;;;;;;;0.40;0.20;;;;;;;14.83;45.73;101667.75;111540;1194;109778;-76
2021/10/07 09:37:23;;;;;;;0.40;0.20;;;;;;;15.00;45.19;101667.35;111520;1193;138000;-77
2021/10/07 09:39:52;;;;;;;0.40;0.20;;;;;;;15.26;45.39;101666.14;111685;1193;95418;-74
2021/10/07 09:42:21;;;;;;;0.40;0.20;;;;;;;15.70;44.34;101660.89;111369;1196;137531;-76
2021/10/07 09:44:59;;;;;;;0.40;0.20;;;;;;;17.11;41.81;101657.69;111536;1194;109647;-77
2021/10/07 09:47:31;;;;;;;0.40;0.10;;;;;;;19.35;37.51;101660.61;111522;1194;95415;-76
2021/10/07 09:50:09;;;;;;;0.40;0.10;;;;;;;21.16;34.17;101652.61;111974;1193;138264;-76
2021/10/07 09:52:37;;;;;;;0.40;0.10;;;;;;;22.91;32.80;101655.36;111658;1194;108958;-77
2021/10/07 09:55:10;;;;;;;0.40;0.10;;;;;;;24.00;30.17;101648.09;111639;1193;138242;-77
2021/10/07 09:57:55;;;;;;;0.40;0.10;;;;;;;24.76;27.54;101649.23;111723;1193;94903;-78
2021/10/07 10:00:26;;;;;;;0.40;0.00;;;;;;;25.34;26.67;101646.67;111612;1195;138388;-76
2021/10/07 10:02:58;;;;;;;0.40;0.00;;;;;;;25.66;25.80;101647.39;114089;1194;107481;-77
2021/10/07 10:05:30;;;;;;;0.40;0.00;;;;;;;26.35;25.37;101644.24;111626;1193;108550;-77
2021/10/07 10:07:57;;;;;;;0.40;0.00;;;;;;;26.57;23.74;101651.60;111449;1196;138410;-76
2021/10/07 10:10:24;;;;;;;0.40;0.00;;;;;;;26.97;24.32;101652.83;111705;1194;94924;-76
2021/10/07 10:12:51;;;;;;;0.40;0.00;;;;;;;27.54;23.75;101655.80;111515;1195;139052;-77
2021/10/07 10:15:18;;;;;;;0.40;0.00;;;;;;;28.19;23.77;101650.45;111646;1193;95351;-77
2021/10/07 10:17:46;;;;;;;0.40;0.00;;;;;;;28.72;21.88;101653.83;111724;1193;139213;-78
2021/10/07 10:20:16;;;;;;;0.40;0.00;;;;;;;28.20;21.75;101652.41;111870;1193;94935;-77
2021/10/07 10:22:47;;;;;;;0.40;0.00;;;;;;;26.75;22.87;101660.20;111794;1193;109037;-77
2021/10/07 10:25:14;;;;;;;0.40;0.00;;;;;;;24.73;25.51;101657.56;111846;1195;137657;-77
2021/10/07 10:27:49;;;;;;;0.40;0.00;;;;;;;23.72;27.99;101657.79;111482;1193;94966;-77
2021/10/07 10:30:25;;;;;;;0.40;0.00;;;;;;;24.46;26.84;101653.90;111391;1193;139146;-77
2021/10/07 10:32:56;;;;;;;0.40;0.00;;;;;;;23.62;27.54;101658.96;111620;1193;108494;-76
2021/10/07 10:35:31;;;;;;;0.40;0.00;;;;;;;22.09;28.78;101664.80;112298;1193;109262;-76
2021/10/07 10:38:03;;;;;;;0.40;0.00;;;;;;;20.93;30.51;101662.65;111574;1193;137555;-76
2021/10/07 10:40:30;;;;;;;0.40;0.10;;;;;;;20.06;31.96;101664.20;111731;1193;94954;-77
2021/10/07 10:43:18;;;;;;;0.40;0.10;;;;;;;19.51;33.41;101663.92;111679;1193;138769;-76
2021/10/07 10:45:51;;;;;;;0.40;0.10;;;;;;;18.97;34.50;101666.02;111693;1195;107667;-77
2021/10/07 10:48:44;;;;;;;0.40;0.10;;;;;;;18.82;35.43;101662.46;111386;1194;137886;-77
2021/10/07 10:51:12;;;;;;;0.40;0.10;;;;;;;18.60;36.46;101660.09;111659;1193;95365;-76
2021/10/07 10:53:49;;;;;;;0.40;0.10;;;;;;;18.33;36.34;101655.05;111548;1193;137479;-78
2021/10/07 10:56:18;;;;;;;0.40;0.10;;;;;;;18.10;36.68;101656.45;111606;1193;108982;-76
2021/10/07 10:58:55;;;;;;;0.40;0.10;;;;;;;17.87;37.29;101653.88;111544;1195;95551;-77
2021/10/07 11:01:21;;;;;;;0.40;0.10;;;;;;;17.67;37.31;101654.74;111394;1194;137603;-77
2021/10/07 11:04:07;;;;;;;0.40;0.10;;;;;;;17.50;37.47;101656.80;111475;1196;96411;-77
2021/10/07 11:07:12;;;;;;;0.40;0.10;;;;;;;17.36;37.97;101655.83;111480;1193;137931;-77
2021/10/07 11:09:56;;;;;;;0.40;0.10;;;;;;;17.22;38.12;101655.77;111656;1193;94883;-77
2021/10/07 11:12:24;;;;;;;0.40;0.10;;;;;;;17.17;37.74;101658.82;114753;1193;137308;-77
2021/10/07 11:14:50;;;;;;;0.40;0.10;;;;;;;17.16;38.14;101657.94;114268;1195;108358;-77
2021/10/07 11:17:18;;;;;;;0.40;0.10;;;;;;;17.12;37.56;101661.13;111595;1196;94998;-75
2021/10/07 11:19:46;;;;;;;0.40;0.10;;;;;;;17.10;37.45;101661.93;111433;1196;137835;-76